Time;durP1;ratioP1;P1;durP2;ratioP2;P2;SDS_P1;SDS_P2;PMS_P1;PMS_P2;Temp;Humidity;BMP_temperature;BMP_pressure;BME280_temperature;BME280_humidity;BME280_pressure;Samples;Min_cycle;Max_cycle;Signal;HPM_P1;HPM_P2
2023/07/21 00:01:06;;;;;;;0.70;0.70;;;13.30;99.90;13.10;100304.00;;;;4969885;28;88038;-67
2023/07/21 00:03:35;;;;;;;1.30;1.20;;;13.20;99.90;13.00;100300.00;;;;5001237;27;89002;-67
2023/07/21 00:06:04;;;;;;;1.43;1.30;;;13.10;99.90;13.00;100303.00;;;;4968228;28;88260;-66
2023/07/21 00:08:30;;;;;;;1.13;1.03;;;13.00;99.90;12.90;100299.00;;;;4967772;28;88777;-67
2023/07/21 00:10:59;;;;;;;1.53;1.43;;;12.90;99.90;12.80;100306.00;;;;4966936;28;110087;-66
2023/07/21 00:13:25;;;;;;;1.43;1.33;;;12.80;99.90;12.70;100299.00;;;;4967866;28;88137;-68
2023/07/21 00:15:52;;;;;;;1.17;1.07;;;12.70;99.90;12.70;100297.00;;;;4973532;28;88236;-67
2023/07/21 00:18:19;;;;;;;1.87;1.37;;;12.70;99.90;12.60;100301.00;;;;4968048;28;88013;-67
2023/07/21 00:20:45;;;;;;;4.77;1.40;;;12.60;99.90;12.60;100308.00;;;;5000086;27;87069;-66
2023/07/21 00:23:12;;;;;;;1.57;1.20;;;12.60;99.90;12.60;100293.00;;;;4971772;28;96326;-68
2023/07/21 00:25:39;;;;;;;4.43;1.57;;;12.60;99.90;12.60;100288.00;;;;5000229;27;88294;-68
2023/07/21 00:28:05;;;;;;;3.00;1.73;;;12.60;99.90;12.60;100284.00;;;;4970581;28;88701;-66
2023/07/21 00:30:31;;;;;;;1.53;1.43;;;12.50;99.90;12.50;100286.00;;;;4969562;28;100781;-68
2023/07/21 00:32:57;;;;;;;2.03;1.37;;;12.60;99.90;12.50;100286.00;;;;4971812;28;97433;-67
2023/07/21 00:35:23;;;;;;;2.13;1.67;;;12.50;99.90;12.40;100283.00;;;;4969562;28;87882;-67
2023/07/21 00:37:49;;;;;;;1.33;1.13;;;12.40;99.90;12.30;100283.00;;;;4968270;28;117505;-67
2023/07/21 00:40:20;;;;;;;1.00;1.00;;;12.40;99.90;12.30;100272.00;;;;4965603;28;109611;-67
2023/07/21 00:42:46;;;;;;;0.80;0.80;;;12.30;99.90;12.30;100275.00;;;;4969752;28;88013;-66
2023/07/21 00:45:22;;;;;;;1.60;1.50;;;12.30;99.90;12.20;100281.00;;;;4970962;28;87517;-67
2023/07/21 00:47:48;;;;;;;1.30;1.20;;;12.30;99.90;12.20;100284.00;;;;4968403;28;87756;-67
2023/07/21 00:50:16;;;;;;;3.00;1.53;;;12.20;99.90;12.10;100281.00;;;;4972498;28;87969;-67
2023/07/21 00:52:42;;;;;;;1.07;0.93;;;12.20;99.90;12.10;100282.00;;;;4969239;28;88903;-67
2023/07/21 00:55:09;;;;;;;4.03;1.43;;;12.10;99.90;12.10;100274.00;;;;4971837;28;87924;-67
2023/07/21 00:57:35;;;;;;;1.23;1.13;;;12.10;99.90;12.10;100275.00;;;;4968450;28;95436;-66
2023/07/21 01:00:06;;;;;;;1.70;1.37;;;12.10;99.90;12.10;100268.00;;;;5003808;27;87929;-67
2023/07/21 01:02:33;;;;;;;1.97;1.30;;;12.10;99.90;12.10;100276.00;;;;4971968;28;87881;-67
2023/07/21 01:04:59;;;;;;;2.17;1.73;;;12.00;99.90;12.10;100262.00;;;;4971439;28;88173;-67
2023/07/21 01:07:25;;;;;;;1.43;0.90;;;12.10;99.90;12.00;100266.00;;;;4997412;27;87810;-67
2023/07/21 01:09:54;;;;;;;1.17;0.90;;;12.00;99.90;12.00;100267.00;;;;4974357;28;110668;-67
2023/07/21 01:12:19;;;;;;;1.70;1.20;;;12.00;99.90;12.00;100257.00;;;;4966603;28;107482;-67
2023/07/21 01:14:45;;;;;;;1.83;1.37;;;12.00;99.90;12.00;100261.00;;;;4969583;28;118411;-67
2023/07/21 01:17:14;;;;;;;1.37;1.13;;;12.00;99.90;12.00;100254.00;;;;4968811;28;115101;-67
2023/07/21 01:19:41;;;;;;;0.87;0.87;;;12.00;99.90;12.00;100258.00;;;;4968860;28;88616;-67
2023/07/21 01:22:15;;;;;;;1.97;1.50;;;12.00;99.90;12.00;100267.00;;;;4966960;28;87834;-67
2023/07/21 01:24:49;;;;;;;2.07;1.67;;;12.00;99.90;12.00;100267.00;;;;4967871;28;88941;-67
2023/07/21 01:27:22;;;;;;;2.63;1.33;;;12.00;99.90;12.00;100258.00;;;;4966873;28;117459;-67
2023/07/21 01:29:49;;;;;;;1.03;0.93;;;12.00;99.90;12.00;100263.00;;;;4969122;28;87875;-67
2023/07/21 01:32:19;;;;;;;3.00;1.40;;;12.00;99.90;12.00;100260.00;;;;4999081;27;87884;-67
2023/07/21 01:34:45;;;;;;;1.17;0.93;;;12.00;99.90;11.90;100262.00;;;;4995915;27;103227;-67
2023/07/21 01:37:13;;;;;;;1.87;1.57;;;11.90;99.90;11.90;100256.00;;;;4966837;28;116179;-67
2023/07/21 01:39:40;;;;;;;2.53;1.03;;;12.00;99.90;11.90;100260.00;;;;4967909;28;87929;-67
2023/07/21 01:42:07;;;;;;;1.93;1.67;;;11.90;99.90;11.90;100259.00;;;;4965815;28;108994;-67
2023/07/21 01:44:33;;;;;;;0.80;0.80;;;11.90;99.90;11.90;100259.00;;;;4971540;28;110842;-66
2023/07/21 01:46:59;;;;;;;1.00;0.90;;;11.90;99.90;11.90;100264.00;;;;4968881;28;88268;-67
2023/07/21 01:49:24;;;;;;;1.43;1.13;;;11.90;99.90;11.90;100255.00;;;;4968023;28;109529;-67
2023/07/21 01:51:57;;;;;;;1.53;1.37;;;11.90;99.90;11.80;100263.00;;;;4969300;28;107077;-66
2023/07/21 01:54:43;;;;;;;2.07;1.50;;;11.90;99.90;11.80;100249.00;;;;4998473;27;88465;-66
2023/07/21 01:57:14;;;;;;;1.13;1.13;;;11.80;99.90;11.70;100252.00;;;;4996495;27;108919;-68
2023/07/21 01:59:45;;;;;;;2.63;2.07;;;11.80;99.90;11.80;100256.00;;;;4998464;27;87242;-67
2023/07/21 02:02:12;;;;;;;1.33;1.23;;;11.80;99.90;11.70;100253.00;;;;4972868;28;88186;-67
2023/07/21 02:04:38;;;;;;;2.37;1.63;;;11.70;99.90;11.70;100246.00;;;;4965285;28;116633;-67
2023/07/21 02:07:05;;;;;;;2.67;1.40;;;11.70;99.90;11.60;100257.00;;;;4968296;28;88754;-68
2023/07/21 02:09:33;;;;;;;2.37;1.60;;;11.70;99.90;11.60;100251.00;;;;4997955;27;87989;-67
2023/07/21 02:11:59;;;;;;;1.67;0.80;;;11.70;99.90;11.60;100254.00;;;;4969429;28;107902;-67
2023/07/21 02:14:25;;;;;;;1.40;1.10;;;11.60;99.90;11.60;100246.00;;;;4968706;28;118747;-67
2023/07/21 02:16:50;;;;;;;1.43;1.33;;;11.60;99.90;11.50;100242.00;;;;4966618;28;116119;-67
2023/07/21 02:19:17;;;;;;;2.40;1.33;;;11.60;99.90;11.50;100247.00;;;;4964398;28;87766;-67
2023/07/21 02:21:43;;;;;;;1.53;1.10;;;11.50;99.90;11.50;100253.00;;;;4967009;28;87864;-70
2023/07/21 02:24:09;;;;;;;1.83;1.27;;;11.50;99.90;11.50;100255.00;;;;4965114;28;117003;-67
2023/07/21 02:26:34;;;;;;;1.40;1.30;;;11.50;99.90;11.40;100244.00;;;;4966222;28;115099;-67
2023/07/21 02:29:00;;;;;;;1.43;1.33;;;11.50;99.90;11.40;100244.00;;;;4964246;28;110671;-68
2023/07/21 02:31:26;;;;;;;2.00;1.47;;;11.50;99.90;11.40;100245.00;;;;4965472;28;107799;-68
2023/07/21 02:33:51;;;;;;;4.10;1.63;;;11.40;99.90;11.40;100243.00;;;;4966529;28;117867;-68
2023/07/21 02:36:17;;;;;;;0.90;0.90;;;11.40;99.90;11.30;100244.00;;;;4969705;28;91415;-67
2023/07/21 02:38:43;;;;;;;1.63;1.53;;;11.40;99.90;11.30;100244.00;;;;4965223;28;88825;-67
2023/07/21 02:41:09;;;;;;;1.90;1.53;;;11.30;99.90;11.20;100247.00;;;;4969709;28;87894;-67
2023/07/21 02:43:35;;;;;;;1.87;1.57;;;11.30;99.90;11.20;100252.00;;;;4973216;28;89250;-68
2023/07/21 02:46:01;;;;;;;3.33;1.70;;;12.50;99.90;11.20;100247.00;;;;4965267;28;94500;-68
2023/07/21 02:48:29;;;;;;;1.87;1.40;;;11.20;99.90;11.10;100244.00;;;;4970229;28;87082;-68
2023/07/21 02:50:55;;;;;;;2.23;2.03;;;11.20;99.90;11.10;100252.00;;;;4970839;28;107998;-67
2023/07/21 02:53:21;;;;;;;1.63;1.30;;;11.10;99.90;11.00;100248.00;;;;4965954;28;88141;-66
2023/07/21 02:55:47;;;;;;;1.93;1.50;;;11.10;99.90;11.00;100246.00;;;;4965961;28;102432;-66
2023/07/21 02:58:15;;;;;;;1.33;1.23;;;11.00;99.90;10.90;100243.00;;;;4965179;28;111279;-68
2023/07/21 03:00:56;;;;;;;1.57;1.47;;;10.90;99.90;10.80;100247.00;;;;4978542;28;89537;-68
2023/07/21 03:03:25;;;;;;;1.37;1.27;;;10.90;99.90;10.90;100255.00;;;;4964212;28;88674;-68
2023/07/21 03:05:52;;;;;;;2.37;1.73;;;10.90;99.90;10.80;100253.00;;;;4969376;28;88912;-67
2023/07/21 03:08:28;;;;;;;2.57;1.73;;;10.80;99.90;10.80;100241.00;;;;4972890;28;95285;-67
2023/07/21 03:10:57;;;;;;;6.00;1.63;;;10.80;99.90;10.70;100237.00;;;;4969804;28;88962;-67
2023/07/21 03:13:24;;;;;;;1.60;1.50;;;10.80;99.90;10.70;100234.00;;;;4968410;28;116726;-67
2023/07/21 03:15:51;;;;;;;1.70;1.20;;;10.70;99.90;10.60;100231.00;;;;4974242;28;87968;-67
2023/07/21 03:18:17;;;;;;;2.20;1.57;;;10.70;99.90;10.60;100235.00;;;;4985942;27;87974;-68
2023/07/21 03:20:43;;;;;;;1.30;1.20;;;10.60;99.90;10.50;100235.00;;;;4972870;28;108128;-68
2023/07/21 03:23:11;;;;;;;2.60;1.93;;;10.60;99.90;10.50;100233.00;;;;4970866;28;88861;-68
2023/07/21 03:25:46;;;;;;;1.70;1.60;;;10.50;99.90;10.40;100231.00;;;;4970546;28;88064;-68
2023/07/21 03:28:12;;;;;;;1.77;1.23;;;10.50;99.90;10.40;100227.00;;;;4970164;28;109663;-68
2023/07/21 03:30:37;;;;;;;2.03;1.83;;;10.50;99.90;10.40;100226.00;;;;4969761;28;108540;-67
2023/07/21 03:33:03;;;;;;;1.57;1.47;;;10.40;99.90;10.30;100224.00;;;;4967834;28;117922;-67
2023/07/21 03:35:29;;;;;;;1.77;1.60;;;10.40;99.90;10.30;100223.00;;;;4971747;28;105132;-67
2023/07/21 03:37:57;;;;;;;1.67;1.53;;;10.30;99.90;10.30;100220.00;;;;4969634;28;109485;-67
2023/07/21 03:40:23;;;;;;;2.03;1.93;;;10.30;99.90;10.30;100219.00;;;;4999924;27;87937;-68
2023/07/21 03:42:49;;;;;;;1.87;1.77;;;10.30;99.90;10.30;100215.00;;;;4966649;28;116239;-67
2023/07/21 03:45:15;;;;;;;1.53;1.43;;;10.30;99.90;10.20;100218.00;;;;4969475;28;88838;-67
2023/07/21 03:47:40;;;;;;;1.97;1.80;;;10.20;99.90;10.20;100206.00;;;;4969953;28;110719;-67
2023/07/21 03:50:08;;;;;;;2.27;1.37;;;10.30;99.90;10.30;100210.00;;;;4966924;28;108015;-67
2023/07/21 03:52:34;;;;;;;1.63;1.50;;;10.30;99.90;10.30;100206.00;;;;4973354;28;88998;-67
2023/07/21 03:54:59;;;;;;;1.67;1.43;;;10.30;99.90;10.30;100215.00;;;;4970807;28;117682;-68
2023/07/21 03:57:25;;;;;;;2.50;2.30;;;10.40;99.90;10.40;100206.00;;;;4968105;28;87923;-67
2023/07/21 03:59:52;;;;;;;1.97;1.80;;;10.40;99.90;10.40;100202.00;;;;4970127;28;87900;-68
2023/07/21 04:02:18;;;;;;;3.70;2.37;;;10.40;99.90;10.50;100202.00;;;;4971711;28;87140;-68
2023/07/21 04:04:46;;;;;;;2.97;2.10;;;10.50;99.90;10.50;100200.00;;;;4966771;28;115104;-68
2023/07/21 04:07:13;;;;;;;29.87;19.73;;;10.50;99.90;10.60;100208.00;;;;4973454;28;88082;-68
2023/07/21 04:09:38;;;;;;;4.03;2.63;;;10.80;99.90;10.60;100201.00;;;;4968366;28;103537;-67
2023/07/21 04:12:06;;;;;;;4.30;3.00;;;10.60;99.90;10.70;100206.00;;;;4970499;28;117593;-67
2023/07/21 04:14:31;;;;;;;1.87;1.70;;;10.70;99.90;10.80;100204.00;;;;4967881;28;88814;-68
2023/07/21 04:16:57;;;;;;;4.57;3.03;;;10.70;99.90;10.80;100206.00;;;;4968415;28;109086;-67
2023/07/21 04:19:25;;;;;;;5.00;3.20;;;10.80;99.90;10.90;100201.00;;;;4966969;28;96662;-67
2023/07/21 04:21:52;;;;;;;6.07;4.13;;;10.90;99.90;11.00;100194.00;;;;4970215;28;88071;-67
2023/07/21 04:24:18;;;;;;;3.83;2.50;;;11.00;99.90;11.10;100199.00;;;;4964686;28;89452;-67
2023/07/21 04:26:44;;;;;;;4.20;2.70;;;11.10;99.90;11.20;100197.00;;;;4969474;28;87352;-67
2023/07/21 04:29:10;;;;;;;3.97;2.83;;;11.20;99.90;11.30;100198.00;;;;4968796;28;108027;-66
2023/07/21 04:31:35;;;;;;;3.23;2.60;;;11.30;99.90;11.40;100199.00;;;;4971179;28;118169;-67
2023/07/21 04:34:01;;;;;;;1.97;1.77;;;11.40;99.90;11.50;100201.00;;;;4968705;28;117253;-67
2023/07/21 04:36:27;;;;;;;2.77;2.57;;;11.50;99.90;11.70;100197.00;;;;4967862;28;110270;-66
2023/07/21 04:38:53;;;;;;;2.80;1.80;;;11.60;99.90;11.80;100199.00;;;;4968255;28;87747;-67
2023/07/21 04:41:19;;;;;;;2.87;2.00;;;11.70;99.90;11.90;100200.00;;;;4969298;28;88100;-67
2023/07/21 04:43:45;;;;;;;2.10;1.50;;;11.80;99.90;12.10;100199.00;;;;4963492;28;115131;-66
2023/07/21 04:46:12;;;;;;;2.13;1.80;;;12.00;99.90;12.20;100191.00;;;;4962322;28;110782;-67
2023/07/21 04:48:38;;;;;;;2.70;1.53;;;12.10;99.90;12.30;100199.00;;;;4967300;28;87744;-67
2023/07/21 04:51:03;;;;;;;3.03;2.40;;;12.30;99.90;12.50;100200.00;;;;4961611;28;117806;-67
2023/07/21 04:53:30;;;;;;;3.87;2.37;;;12.40;99.90;12.60;100202.00;;;;4924682;28;1110288;-67
2023/07/21 04:55:57;;;;;;;2.53;1.90;;;12.50;99.90;12.70;100186.00;;;;4964287;28;88053;-67
2023/07/21 04:58:24;;;;;;;3.50;2.33;;;12.70;99.90;12.90;100195.00;;;;4968096;28;88858;-66
2023/07/21 05:00:50;;;;;;;1.83;1.73;;;12.80;99.90;13.10;100197.00;;;;4947170;28;89026;-67
2023/07/21 05:03:15;;;;;;;2.63;1.53;;;13.00;99.90;13.20;100193.00;;;;4949135;28;88216;-68
2023/07/21 05:05:43;;;;;;;2.27;1.70;;;13.20;99.90;13.40;100186.00;;;;4943569;28;108861;-67
2023/07/21 05:08:09;;;;;;;1.53;1.40;;;13.30;99.90;13.60;100187.00;;;;4945631;28;87736;-67
2023/07/21 05:10:35;;;;;;;2.17;1.47;;;13.40;99.90;13.80;100182.00;;;;4945720;28;116589;-67
2023/07/21 05:13:00;;;;;;;3.00;1.77;;;13.70;99.90;14.00;100190.00;;;;4944182;28;88741;-67
2023/07/21 05:15:26;;;;;;;1.40;1.30;;;13.80;99.90;14.10;100181.00;;;;4946693;28;100619;-67
2023/07/21 05:17:52;;;;;;;2.40;2.03;;;14.00;99.90;14.30;100184.00;;;;4944482;28;108866;-67
2023/07/21 05:20:20;;;;;;;2.00;1.80;;;14.20;99.90;14.50;100172.00;;;;4945710;28;117925;-67
2023/07/21 05:22:46;;;;;;;1.97;1.77;;;14.30;99.90;14.70;100180.00;;;;4946648;28;88747;-67
2023/07/21 05:25:16;;;;;;;1.57;1.40;;;14.50;99.90;14.80;100175.00;;;;4943246;28;87956;-67
2023/07/21 05:27:42;;;;;;;1.87;1.27;;;14.70;99.90;14.90;100169.00;;;;4946361;28;87976;-67
2023/07/21 05:30:17;;;;;;;1.17;1.07;;;14.80;99.90;15.10;100171.00;;;;4942724;28;117138;-67
2023/07/21 05:32:43;;;;;;;1.52;1.42;;;14.90;99.90;15.20;100180.00;;;;4940598;28;88065;-67
2023/07/21 05:35:09;;;;;;;2.38;2.00;;;15.00;99.90;15.30;100183.00;;;;4943349;28;87764;-67
2023/07/21 05:37:35;;;;;;;2.35;1.33;;;15.20;99.90;15.40;100185.00;;;;4943238;28;110116;-68
2023/07/21 05:40:00;;;;;;;2.13;1.13;;;15.30;99.90;15.70;100176.00;;;;4942473;28;116803;-68
2023/07/21 05:42:26;;;;;;;2.08;1.30;;;15.50;99.90;15.90;100181.00;;;;4944637;28;109426;-68
2023/07/21 05:44:52;;;;;;;2.20;1.20;;;15.70;99.90;16.10;100185.00;;;;4945933;28;111287;-68
2023/07/21 05:47:19;;;;;;;2.47;1.30;;;15.90;99.90;16.30;100183.00;;;;4943622;28;108461;-67
2023/07/21 05:49:45;;;;;;;1.55;1.40;;;16.10;99.90;16.60;100188.00;;;;4947243;28;89114;-67
2023/07/21 05:52:11;;;;;;;1.27;0.98;;;16.40;99.90;16.90;100183.00;;;;4944644;28;88304;-67
2023/07/21 05:54:37;;;;;;;1.05;0.73;;;16.60;99.90;17.10;100180.00;;;;4942938;28;88179;-68
2023/07/21 05:57:04;;;;;;;1.20;1.10;;;16.90;99.90;17.40;100174.00;;;;4946921;28;88095;-67
2023/07/21 05:59:31;;;;;;;1.38;0.98;;;17.20;99.90;17.70;100180.00;;;;4945770;28;88536;-67
2023/07/21 06:01:59;;;;;;;1.10;1.00;;;17.40;99.90;18.00;100173.00;;;;4946278;28;88545;-68
2023/07/21 06:04:25;;;;;;;1.63;1.08;;;17.70;99.90;18.20;100181.00;;;;4974462;28;87486;-68
2023/07/21 06:06:50;;;;;;;0.93;0.60;;;18.00;99.90;18.40;100172.00;;;;4944628;28;87754;-67
2023/07/21 06:09:17;;;;;;;1.02;0.93;;;18.20;99.90;18.60;100167.00;;;;4943848;28;87771;-67
2023/07/21 06:11:42;;;;;;;1.27;1.15;;;18.40;99.90;18.80;100168.00;;;;4941428;28;89134;-67
2023/07/21 06:14:17;;;;;;;2.25;0.80;;;18.60;99.90;19.10;100163.00;;;;4945698;28;89791;-68
2023/07/21 06:16:43;;;;;;;1.02;0.73;;;18.90;99.90;19.40;100168.00;;;;4949421;28;94990;-67
2023/07/21 06:19:09;;;;;;;1.50;1.35;;;19.20;99.90;19.70;100166.00;;;;4942574;28;88761;-67
2023/07/21 06:21:35;;;;;;;1.40;0.73;;;19.40;99.90;19.80;100155.00;;;;4942073;28;103665;-69
2023/07/21 06:24:01;;;;;;;0.90;0.90;;;19.60;99.90;20.00;100158.00;;;;4941258;28;88363;-67
2023/07/21 06:26:27;;;;;;;1.50;0.82;;;19.80;99.90;20.20;100172.00;;;;4945224;28;105151;-67
2023/07/21 06:28:52;;;;;;;1.33;0.57;;;20.00;99.90;20.30;100164.00;;;;4945859;28;87672;-67
2023/07/21 06:31:18;;;;;;;0.95;0.88;;;20.10;99.00;20.40;100160.00;;;;4944045;28;96569;-67
2023/07/21 06:33:44;;;;;;;0.88;0.63;;;20.20;98.30;20.60;100163.00;;;;4940660;28;87810;-67
2023/07/21 06:36:09;;;;;;;3.75;1.02;;;20.40;97.60;20.70;100170.00;;;;4945230;28;88924;-67
2023/07/21 06:38:35;;;;;;;0.73;0.73;;;20.50;96.80;20.80;100157.00;;;;4945320;28;117755;-67
2023/07/21 06:41:04;;;;;;;0.77;0.77;;;20.60;96.20;20.90;100153.00;;;;4941100;28;115887;-66
2023/07/21 06:43:31;;;;;;;0.50;0.50;;;20.70;95.60;21.00;100150.00;;;;4941990;28;88009;-67
2023/07/21 06:45:58;;;;;;;1.10;1.00;;;20.70;95.50;21.10;100145.00;;;;4945426;28;88196;-67
2023/07/21 06:48:24;;;;;;;1.17;1.00;;;20.80;95.60;21.20;100147.00;;;;4941568;28;89222;-67
2023/07/21 06:50:50;;;;;;;0.90;0.90;;;20.90;94.80;21.20;100144.00;;;;4945406;28;88056;-66
2023/07/21 06:53:19;;;;;;;1.15;0.80;;;21.00;93.10;21.20;100140.00;;;;4945937;28;87411;-67
2023/07/21 06:55:49;;;;;;;1.10;0.60;;;21.00;92.60;21.20;100149.00;;;;4943833;28;87820;-67
2023/07/21 06:58:14;;;;;;;0.98;0.88;;;21.00;92.60;21.20;100144.00;;;;4941292;28;88805;-66
2023/07/21 07:00:40;;;;;;;0.80;0.80;;;20.90;92.90;21.30;100142.00;;;;4941013;28;98403;-66
2023/07/21 07:03:06;;;;;;;2.03;0.70;;;21.00;93.10;21.30;100137.00;;;;4940544;28;88285;-66
2023/07/21 07:05:31;;;;;;;1.50;0.80;;;21.10;92.60;21.40;100137.00;;;;4946396;28;88190;-67
2023/07/21 07:07:57;;;;;;;0.93;0.80;;;21.10;92.50;21.40;100135.00;;;;4944088;28;117070;-66
2023/07/21 07:10:23;;;;;;;1.33;0.70;;;21.20;92.10;21.50;100135.00;;;;4943105;28;115847;-67
2023/07/21 07:12:51;;;;;;;0.93;0.93;;;21.20;92.00;21.50;100134.00;;;;4943429;28;111313;-66
2023/07/21 07:15:17;;;;;;;0.73;0.73;;;21.20;91.90;21.50;100138.00;;;;4961359;28;87904;-67
2023/07/21 07:17:43;;;;;;;0.57;0.57;;;21.20;92.00;21.60;100135.00;;;;4944131;28;115236;-67
2023/07/21 07:20:11;;;;;;;0.90;0.80;;;21.30;91.70;21.70;100131.00;;;;4941300;28;116039;-66
2023/07/21 07:22:37;;;;;;;0.80;0.80;;;21.40;91.70;21.80;100146.00;;;;4945056;28;89278;-67
2023/07/21 07:25:03;;;;;;;0.73;0.70;;;21.50;91.70;21.90;100149.00;;;;4941487;28;102166;-66
2023/07/21 07:27:29;;;;;;;1.50;0.80;;;21.60;91.30;22.00;100147.00;;;;4945168;28;91504;-66
2023/07/21 07:29:55;;;;;;;0.50;0.50;;;21.70;90.70;22.00;100150.00;;;;4940864;28;99340;-66
2023/07/21 07:32:20;;;;;;;1.20;0.90;;;21.70;90.10;22.00;100151.00;;;;4947612;28;87669;-66
2023/07/21 07:34:46;;;;;;;0.85;0.82;;;21.70;89.60;21.90;100147.00;;;;4942923;28;108619;-66
2023/07/21 07:37:12;;;;;;;1.75;1.25;;;21.70;89.50;21.90;100141.00;;;;4943280;28;88860;-67
2023/07/21 07:39:37;;;;;;;6.22;0.65;;;21.70;88.70;21.90;100143.00;;;;4945641;28;117432;-67
2023/07/21 07:42:03;;;;;;;0.57;0.50;;;21.70;89.50;21.80;100143.00;;;;4942241;28;100262;-68
2023/07/21 07:44:29;;;;;;;0.75;0.40;;;21.60;88.20;21.80;100143.00;;;;4943408;28;108046;-68
2023/07/21 07:46:58;;;;;;;0.95;0.63;;;21.60;88.30;21.80;100137.00;;;;4944795;28;118775;-68
2023/07/21 07:49:24;;;;;;;1.13;0.88;;;21.60;88.40;21.80;100143.00;;;;4946492;28;89146;-67
2023/07/21 07:51:50;;;;;;;0.52;0.52;;;21.50;88.60;21.80;100136.00;;;;4946711;28;108640;-68
2023/07/21 07:54:15;;;;;;;1.35;0.80;;;21.60;88.80;21.90;100145.00;;;;4941428;28;91652;-68
2023/07/21 07:56:41;;;;;;;0.85;0.45;;;21.60;88.80;22.00;100149.00;;;;4945999;28;118271;-68
2023/07/21 07:59:07;;;;;;;0.55;0.55;;;21.70;88.40;22.00;100145.00;;;;4945912;28;87928;-68
2023/07/21 08:01:32;;;;;;;1.08;0.93;;;21.80;88.10;22.00;100138.00;;;;4947021;28;105788;-68
2023/07/21 08:03:58;;;;;;;0.73;0.73;;;21.80;87.40;22.00;100140.00;;;;4942841;28;109125;-67
2023/07/21 08:06:24;;;;;;;2.45;0.47;;;21.80;86.60;22.00;100138.00;;;;4945574;28;87133;-68
2023/07/21 08:08:50;;;;;;;0.47;0.40;;;21.70;86.10;22.00;100140.00;;;;4944421;28;116240;-66
2023/07/21 08:11:15;;;;;;;1.00;0.85;;;21.70;85.80;21.90;100141.00;;;;4945029;28;110388;-66
2023/07/21 08:13:41;;;;;;;0.30;0.30;;;21.70;84.50;21.90;100149.00;;;;4979005;28;88919;-66
2023/07/21 08:16:13;;;;;;;0.82;0.82;;;21.70;84.40;21.90;100144.00;;;;4949934;28;88040;-66
2023/07/21 08:18:39;;;;;;;0.52;0.52;;;21.70;84.60;21.90;100132.00;;;;4948015;28;89013;-66
2023/07/21 08:21:23;;;;;;;0.50;0.50;;;21.70;84.80;22.00;100138.00;;;;4945712;28;87914;-66
2023/07/21 08:23:50;;;;;;;2.15;0.50;;;21.70;85.00;22.10;100130.00;;;;4958809;28;89024;-67
2023/07/21 08:26:19;;;;;;;0.60;0.60;;;21.80;84.70;22.20;100131.00;;;;4944229;28;100181;-66
2023/07/21 08:28:45;;;;;;;0.45;0.40;;;21.90;84.00;22.30;100127.00;;;;4943159;28;117059;-66
2023/07/21 08:31:11;;;;;;;0.77;0.65;;;22.00;84.00;22.40;100120.00;;;;4947389;28;111840;-68
2023/07/21 08:33:38;;;;;;;0.98;0.60;;;22.10;83.50;22.50;100119.00;;;;4975867;27;88002;-67
2023/07/21 08:36:05;;;;;;;0.45;0.45;;;22.20;83.40;22.60;100124.00;;;;4945612;28;110045;-67
2023/07/21 08:38:34;;;;;;;0.35;0.35;;;22.30;81.80;22.70;100118.00;;;;4945626;28;88577;-66
2023/07/21 08:41:08;;;;;;;0.43;0.43;;;22.30;79.70;22.70;100114.00;;;;4944528;28;88273;-66
2023/07/21 08:43:34;;;;;;;0.40;0.40;;;22.40;78.60;22.70;100118.00;;;;4961439;28;87862;-67
2023/07/21 08:46:06;;;;;;;0.80;0.43;;;22.40;76.90;22.80;100117.00;;;;4946203;28;88791;-65
2023/07/21 08:48:34;;;;;;;1.10;0.65;;;22.50;76.20;22.90;100117.00;;;;4944238;28;88248;-65
2023/07/21 08:51:00;;;;;;;0.38;0.38;;;22.60;75.40;23.00;100116.00;;;;4943698;28;97374;-65
2023/07/21 08:53:26;;;;;;;0.75;0.40;;;22.70;75.60;23.20;100119.00;;;;4944275;28;88019;-66
2023/07/21 08:55:56;;;;;;;0.52;0.50;;;22.80;75.20;23.30;100125.00;;;;4946785;28;87430;-66
2023/07/21 08:58:23;;;;;;;0.50;0.40;;;22.90;75.10;23.50;100131.00;;;;4972512;27;88047;-67
2023/07/21 09:00:52;;;;;;;0.93;0.75;;;23.10;75.10;23.70;100129.00;;;;4959044;28;87894;-68
2023/07/21 09:03:27;;;;;;;0.55;0.43;;;23.30;72.90;23.90;100132.00;;;;4944670;28;88870;-67
2023/07/21 09:05:56;;;;;;;0.50;0.30;;;23.50;71.30;23.90;100130.00;;;;4946147;28;88026;-67
2023/07/21 09:08:31;;;;;;;0.60;0.60;;;23.60;70.50;24.00;100130.00;;;;4945674;28;88233;-67
2023/07/21 09:11:02;;;;;;;0.82;0.57;;;23.60;68.80;23.90;100128.00;;;;4945520;28;87969;-67
2023/07/21 09:13:30;;;;;;;0.90;0.70;;;23.60;68.10;23.90;100125.00;;;;4945593;28;87615;-67
2023/07/21 09:16:01;;;;;;;0.93;0.52;;;23.60;68.10;23.90;100128.00;;;;4949008;28;87904;-66
2023/07/21 09:18:34;;;;;;;0.60;0.50;;;23.60;67.90;24.00;100115.00;;;;4946329;28;88753;-66
2023/07/21 09:21:00;;;;;;;0.73;0.40;;;23.70;68.70;24.00;100116.00;;;;4943951;28;98923;-67
2023/07/21 09:23:29;;;;;;;0.73;0.70;;;23.70;68.00;24.10;100122.00;;;;4946799;28;109778;-66
2023/07/21 09:25:57;;;;;;;2.75;0.63;;;23.80;67.70;24.20;100121.00;;;;4945725;28;89274;-66
2023/07/21 09:28:43;;;;;;;0.60;0.38;;;23.90;68.10;24.50;100120.00;;;;4943553;28;88918;-66
2023/07/21 09:31:10;;;;;;;1.13;0.60;;;24.10;68.10;24.60;100119.00;;;;4973378;28;88047;-67
2023/07/21 09:33:42;;;;;;;1.05;0.80;;;24.30;67.50;24.60;100111.00;;;;4944785;28;88014;-67
2023/07/21 09:36:11;;;;;;;1.38;0.60;;;24.30;66.00;24.50;100117.00;;;;4946603;28;89104;-66
2023/07/21 09:38:38;;;;;;;0.57;0.52;;;24.20;66.00;24.40;100121.00;;;;4946372;28;87755;-66
2023/07/21 09:41:09;;;;;;;1.67;1.35;;;24.20;65.60;24.30;100112.00;;;;4946051;28;87702;-67
2023/07/21 09:43:35;;;;;;;0.60;0.60;;;24.10;66.20;24.20;100107.00;;;;4946027;28;87897;-66
2023/07/21 09:46:07;;;;;;;1.67;0.73;;;24.00;66.50;24.20;100108.00;;;;4944519;28;87622;-66
2023/07/21 09:48:35;;;;;;;0.60;0.60;;;23.90;67.10;24.20;100109.00;;;;4972734;28;89251;-66
2023/07/21 09:51:04;;;;;;;0.50;0.50;;;23.90;68.40;24.20;100111.00;;;;4943313;28;87708;-67
2023/07/21 09:53:38;;;;;;;0.30;0.30;;;23.90;66.60;24.10;100110.00;;;;4944759;28;88927;-68
2023/07/21 09:56:05;;;;;;;0.40;0.40;;;23.90;66.90;24.10;100112.00;;;;4946485;28;88013;-66
2023/07/21 09:58:35;;;;;;;1.25;0.85;;;23.90;67.10;24.20;100101.00;;;;4947048;28;111733;-66
2023/07/21 10:01:04;;;;;;;0.60;0.50;;;23.80;67.30;24.20;100103.00;;;;4946465;28;88293;-66
2023/07/21 10:03:31;;;;;;;0.60;0.40;;;24.00;67.40;24.30;100102.00;;;;4943169;28;87819;-66
2023/07/21 10:06:00;;;;;;;0.65;0.47;;;24.00;67.40;24.50;100097.00;;;;4973932;27;87818;-66
2023/07/21 10:08:27;;;;;;;1.17;0.85;;;24.00;67.20;24.60;100089.00;;;;4943722;28;89884;-66
2023/07/21 10:10:58;;;;;;;0.55;0.55;;;24.20;67.20;24.70;100083.00;;;;4974881;27;87101;-67
2023/07/21 10:13:26;;;;;;;0.80;0.50;;;24.40;66.80;24.80;100087.00;;;;4944241;28;87956;-67
2023/07/21 10:15:53;;;;;;;1.70;1.27;;;24.50;65.80;24.80;100088.00;;;;4941968;28;87768;-67
2023/07/21 10:18:19;;;;;;;0.50;0.50;;;24.50;63.70;24.80;100089.00;;;;4940877;28;88837;-67
2023/07/21 10:20:50;;;;;;;0.30;0.30;;;24.50;63.20;24.90;100091.00;;;;4944200;28;89043;-69
2023/07/21 10:23:23;;;;;;;2.00;0.70;;;24.50;62.70;25.00;100092.00;;;;4941392;28;88066;-70
2023/07/21 10:25:52;;;;;;;0.38;0.38;;;24.60;62.90;25.10;100089.00;;;;4972721;28;88506;-70
2023/07/21 10:28:38;;;;;;;1.00;0.60;;;24.70;62.70;25.30;100087.00;;;;4946363;28;88628;-71
2023/07/21 10:31:22;;;;;;;0.28;0.28;;;24.90;62.40;25.50;100087.00;;;;4962851;28;88159;-70
2023/07/21 10:34:06;;;;;;;0.82;0.60;;;25.10;61.80;25.60;100087.00;;;;4942790;28;87779;-69
2023/07/21 10:36:51;;;;;;;0.30;0.30;;;25.20;60.30;25.60;100084.00;;;;4940250;28;112952;-71
2023/07/21 10:39:23;;;;;;;3.20;0.95;;;25.30;59.90;25.80;100078.00;;;;4937837;28;88161;-71
2023/07/21 10:41:54;;;;;;;0.55;0.55;;;25.40;59.60;25.90;100081.00;;;;4946853;28;88010;-70
2023/07/21 10:44:21;;;;;;;0.50;0.50;;;25.50;58.30;25.90;100078.00;;;;4942643;28;89074;-71
2023/07/21 10:46:49;;;;;;;0.40;0.38;;;25.50;57.90;26.00;100075.00;;;;4940573;28;88283;-69